BAW264 KSAN-EGLL
Flight info
| Callsign | BAW264 |
|---|---|
| Flight time | N/A |
| Altitude | 36000 |
| Route | ZZOOO4 MTBAL DCT CADEZ DCT HAKMN/N0470F370 Q73 LAKRR DCT MLF DCT KU57O DCT KU81S DCT KD90U DCT DIK DCT KOBID DCT 56N090W/N0481F390 61N080W DCT BEZED DCT AYROU/M081F390 DCT EPMAN DCT 66N050W/M083F410 6530N04000W 64N030W 6130N02000W DCT GOMUP/N0476F410 DCT GINGA DCT KELLY L10 WAL UY53 NUGRA |
| Aircraft | B772/H-SDE2E3FGHIJ5LORVWXY/LB1D1 |
Departure
| Time | N/A |
|---|---|
| Airport | San Diego International Airport (KSAN) |
Arrival
| Time | 2026-05-03 22:32 |
|---|---|
| Airport | London Heathrow Airport (EGLL) |
| Time | Latitude | Longitude | Altitude | Speed | Heading |
|---|---|---|---|---|---|
| 2026-05-03 20:15 | 63.56747 | -22.56896 | 40989 ft | 533 kts | 115° |
| 2026-05-03 20:15 | 63.53602 | -22.41812 | 40967 ft | 533 kts | 115° |
| 2026-05-03 20:16 | 63.50444 | -22.26778 | 40977 ft | 533 kts | 115° |
| 2026-05-03 20:16 | 63.47274 | -22.11787 | 40983 ft | 533 kts | 115° |
| 2026-05-03 20:17 | 63.44110 | -21.96939 | 40982 ft | 533 kts | 115° |
| 2026-05-03 20:17 | 63.40904 | -21.81993 | 40980 ft | 534 kts | 116° |
| 2026-05-03 20:18 | 63.37680 | -21.67072 | 40983 ft | 534 kts | 116° |
| 2026-05-03 20:18 | 63.34438 | -21.52176 | 40946 ft | 534 kts | 116° |
| 2026-05-03 20:19 | 63.31182 | -21.37318 | 40957 ft | 533 kts | 116° |
| 2026-05-03 20:19 | 63.27940 | -21.22625 | 40968 ft | 533 kts | 116° |
| 2026-05-03 20:20 | 63.24664 | -21.07879 | 40954 ft | 532 kts | 116° |
| 2026-05-03 20:20 | 63.21370 | -20.93157 | 40957 ft | 532 kts | 116° |
| 2026-05-03 20:21 | 63.18064 | -20.78484 | 40969 ft | 533 kts | 117° |
| 2026-05-03 20:21 | 63.14738 | -20.63818 | 40956 ft | 533 kts | 117° |
| 2026-05-03 20:22 | 63.11398 | -20.49192 | 40950 ft | 533 kts | 117° |
| 2026-05-03 20:22 | 63.08036 | -20.34569 | 40950 ft | 533 kts | 117° |
| 2026-05-03 20:23 | 63.04667 | -20.20000 | 40948 ft | 533 kts | 117° |
| 2026-05-03 20:23 | 63.01151 | -20.05636 | 40940 ft | 532 kts | 124° |
| 2026-05-03 20:24 | 62.96660 | -19.92747 | 40944 ft | 530 kts | 134° |
| 2026-05-03 20:24 | 62.91433 | -19.81531 | 40947 ft | 528 kts | 138° |
| 2026-05-03 20:25 | 62.86104 | -19.70438 | 40955 ft | 529 kts | 138° |
| 2026-05-03 20:25 | 62.80782 | -19.59304 | 40949 ft | 529 kts | 138° |
| 2026-05-03 20:26 | 62.75466 | -19.48158 | 40949 ft | 530 kts | 138° |
| 2026-05-03 20:26 | 62.70142 | -19.37032 | 40924 ft | 530 kts | 138° |
| 2026-05-03 20:27 | 62.64823 | -19.25980 | 40937 ft | 529 kts | 138° |
| 2026-05-03 20:27 | 62.59485 | -19.14954 | 40945 ft | 529 kts | 138° |
| 2026-05-03 20:28 | 62.54132 | -19.03957 | 40946 ft | 529 kts | 139° |
| 2026-05-03 20:28 | 62.48771 | -18.93002 | 40949 ft | 529 kts | 139° |
| 2026-05-03 20:29 | 62.43437 | -18.82156 | 40940 ft | 529 kts | 139° |
| 2026-05-03 20:29 | 62.38074 | -18.71307 | 40943 ft | 528 kts | 139° |
| 2026-05-03 20:30 | 62.32707 | -18.60506 | 40946 ft | 528 kts | 139° |
| 2026-05-03 20:30 | 62.27325 | -18.49732 | 40949 ft | 528 kts | 139° |
| 2026-05-03 20:31 | 62.21976 | -18.39076 | 40952 ft | 528 kts | 139° |
| 2026-05-03 20:31 | 62.16582 | -18.28387 | 40941 ft | 528 kts | 139° |
| 2026-05-03 20:32 | 62.11186 | -18.17745 | 40942 ft | 527 kts | 139° |
| 2026-05-03 20:32 | 62.05782 | -18.07145 | 40943 ft | 527 kts | 139° |
| 2026-05-03 20:33 | 62.00368 | -17.96576 | 40946 ft | 527 kts | 139° |
| 2026-05-03 20:33 | 61.94993 | -17.86137 | 40927 ft | 526 kts | 140° |
| 2026-05-03 20:34 | 61.89581 | -17.75679 | 40943 ft | 526 kts | 140° |
| 2026-05-03 20:34 | 61.84157 | -17.65248 | 40944 ft | 526 kts | 140° |
| 2026-05-03 20:35 | 61.78732 | -17.54869 | 40946 ft | 526 kts | 140° |
| 2026-05-03 20:35 | 61.73298 | -17.44523 | 40950 ft | 525 kts | 140° |
| 2026-05-03 20:36 | 61.67885 | -17.34269 | 40940 ft | 525 kts | 140° |
| 2026-05-03 20:36 | 61.62449 | -17.24021 | 40946 ft | 524 kts | 140° |
| 2026-05-03 20:37 | 61.57002 | -17.13807 | 40954 ft | 525 kts | 140° |
| 2026-05-03 20:37 | 61.51568 | -17.03662 | 40952 ft | 526 kts | 140° |
| 2026-05-03 20:38 | 61.46093 | -16.93491 | 40927 ft | 526 kts | 140° |
| 2026-05-03 20:38 | 61.40610 | -16.83355 | 40943 ft | 525 kts | 140° |
| 2026-05-03 20:39 | 61.35129 | -16.73273 | 40948 ft | 525 kts | 140° |
| 2026-05-03 20:39 | 61.29671 | -16.63281 | 40949 ft | 525 kts | 141° |
| 2026-05-03 20:40 | 61.24172 | -16.53263 | 40950 ft | 525 kts | 141° |
| 2026-05-03 20:40 | 61.18675 | -16.43297 | 40957 ft | 524 kts | 141° |
| 2026-05-03 20:41 | 61.13173 | -16.33370 | 40958 ft | 524 kts | 141° |
| 2026-05-03 20:41 | 61.07707 | -16.23554 | 40942 ft | 523 kts | 141° |
| 2026-05-03 20:42 | 61.02199 | -16.13711 | 40955 ft | 523 kts | 141° |
| 2026-05-03 20:42 | 60.97623 | -16.05569 | 40955 ft | 523 kts | 141° |
| 2026-05-03 20:43 | 60.92116 | -15.95809 | 40961 ft | 523 kts | 141° |
| 2026-05-03 20:43 | 60.86595 | -15.86077 | 40966 ft | 522 kts | 141° |
| 2026-05-03 20:44 | 60.81072 | -15.76385 | 40957 ft | 522 kts | 141° |
| 2026-05-03 20:44 | 60.75537 | -15.66718 | 40959 ft | 522 kts | 141° |
| 2026-05-03 20:45 | 60.69998 | -15.57088 | 40960 ft | 522 kts | 141° |
| 2026-05-03 20:45 | 60.64451 | -15.47489 | 40965 ft | 523 kts | 141° |
| 2026-05-03 20:46 | 60.58927 | -15.37975 | 40963 ft | 523 kts | 142° |
| 2026-05-03 20:46 | 60.53352 | -15.28418 | 40965 ft | 523 kts | 142° |
| 2026-05-03 20:47 | 60.47780 | -15.18910 | 40968 ft | 523 kts | 142° |
| 2026-05-03 20:47 | 60.42246 | -15.09510 | 40961 ft | 522 kts | 142° |
| 2026-05-03 20:48 | 60.36673 | -15.00089 | 40973 ft | 522 kts | 142° |
| 2026-05-03 20:48 | 60.31096 | -14.90704 | 40981 ft | 521 kts | 142° |
| 2026-05-03 20:49 | 60.25512 | -14.81350 | 40984 ft | 522 kts | 142° |
| 2026-05-03 20:49 | 60.19912 | -14.72012 | 40964 ft | 522 kts | 142° |
| 2026-05-03 20:50 | 60.14317 | -14.62725 | 40981 ft | 521 kts | 142° |
| 2026-05-03 20:50 | 60.08719 | -14.53475 | 40983 ft | 521 kts | 142° |
| 2026-05-03 20:51 | 60.03153 | -14.44320 | 40990 ft | 521 kts | 142° |
| 2026-05-03 20:51 | 59.97548 | -14.35142 | 40992 ft | 521 kts | 142° |
| 2026-05-03 20:52 | 59.91936 | -14.25994 | 40988 ft | 520 kts | 142° |
| 2026-05-03 20:52 | 59.86321 | -14.16884 | 41000 ft | 519 kts | 142° |
| 2026-05-03 20:53 | 59.80715 | -14.07828 | 40997 ft | 519 kts | 142° |
| 2026-05-03 20:53 | 59.75130 | -13.98845 | 41006 ft | 519 kts | 142° |
| 2026-05-03 20:54 | 59.69511 | -13.89846 | 40992 ft | 518 kts | 142° |
| 2026-05-03 20:54 | 59.61080 | -13.76423 | 41008 ft | 518 kts | 142° |
| 2026-05-03 20:55 | 59.55463 | -13.67530 | 41016 ft | 517 kts | 142° |
| 2026-05-03 20:55 | 59.49840 | -13.58666 | 41015 ft | 517 kts | 143° |
| 2026-05-03 20:56 | 59.44218 | -13.49841 | 41007 ft | 517 kts | 142° |
| 2026-05-03 20:56 | 59.38623 | -13.41098 | 41019 ft | 516 kts | 143° |
| 2026-05-03 20:57 | 59.32994 | -13.32340 | 41020 ft | 516 kts | 143° |
| 2026-05-03 20:57 | 59.27364 | -13.23617 | 41029 ft | 516 kts | 143° |
| 2026-05-03 20:58 | 59.21721 | -13.14913 | 41007 ft | 516 kts | 143° |
| 2026-05-03 20:58 | 59.16081 | -13.06251 | 41038 ft | 516 kts | 143° |
| 2026-05-03 20:59 | 59.10442 | -12.97628 | 41034 ft | 515 kts | 143° |
| 2026-05-03 20:59 | 59.04835 | -12.89090 | 41041 ft | 515 kts | 143° |
| 2026-05-03 21:00 | 59.00107 | -12.81919 | 41056 ft | 515 kts | 143° |
| 2026-05-03 21:00 | 58.93529 | -12.71985 | 41050 ft | 515 kts | 143° |
| 2026-05-03 21:01 | 58.87871 | -12.63480 | 41046 ft | 515 kts | 143° |
| 2026-05-03 21:01 | 58.82201 | -12.54992 | 41046 ft | 515 kts | 143° |
| 2026-05-03 21:02 | 58.76529 | -12.46538 | 41055 ft | 515 kts | 143° |
| 2026-05-03 21:02 | 58.70844 | -12.38101 | 41037 ft | 515 kts | 143° |
| 2026-05-03 21:03 | 58.65164 | -12.29706 | 41055 ft | 514 kts | 143° |
| 2026-05-03 21:03 | 58.59485 | -12.21348 | 41057 ft | 514 kts | 143° |
| 2026-05-03 21:04 | 58.53805 | -12.13023 | 41060 ft | 514 kts | 143° |
| 2026-05-03 21:04 | 58.48148 | -12.04767 | 41060 ft | 514 kts | 143° |
| 2026-05-03 21:05 | 58.42463 | -11.96504 | 41056 ft | 513 kts | 143° |
| 2026-05-03 21:05 | 58.36778 | -11.88275 | 41063 ft | 512 kts | 143° |
| 2026-05-03 21:06 | 58.31086 | -11.80071 | 41071 ft | 513 kts | 143° |
| 2026-05-03 21:06 | 58.25396 | -11.71903 | 41068 ft | 513 kts | 143° |
| 2026-05-03 21:07 | 58.19697 | -11.63757 | 41066 ft | 513 kts | 143° |
| 2026-05-03 21:07 | 58.13983 | -11.55622 | 41069 ft | 513 kts | 144° |
| 2026-05-03 21:08 | 58.08270 | -11.47523 | 41071 ft | 513 kts | 144° |
| 2026-05-03 21:08 | 58.02586 | -11.39496 | 41073 ft | 514 kts | 144° |
| 2026-05-03 21:09 | 57.96853 | -11.31434 | 41067 ft | 514 kts | 144° |
| 2026-05-03 21:09 | 57.91123 | -11.23409 | 41073 ft | 513 kts | 144° |
| 2026-05-03 21:10 | 57.85391 | -11.15413 | 41081 ft | 513 kts | 144° |
| 2026-05-03 21:10 | 57.79655 | -11.07445 | 41081 ft | 512 kts | 144° |
| 2026-05-03 21:11 | 57.73924 | -10.99516 | 41085 ft | 512 kts | 144° |
| 2026-05-03 21:11 | 57.68231 | -10.91671 | 41090 ft | 511 kts | 144° |
| 2026-05-03 21:12 | 57.62499 | -10.83802 | 41083 ft | 511 kts | 144° |
| 2026-05-03 21:12 | 57.56763 | -10.75961 | 41090 ft | 510 kts | 144° |
| 2026-05-03 21:13 | 57.51034 | -10.68161 | 41090 ft | 510 kts | 144° |
| 2026-05-03 21:13 | 57.45338 | -10.60435 | 41086 ft | 509 kts | 144° |
| 2026-05-03 21:14 | 57.39612 | -10.52700 | 41087 ft | 508 kts | 144° |
| 2026-05-03 21:14 | 57.33888 | -10.44997 | 41089 ft | 508 kts | 144° |
| 2026-05-03 21:15 | 57.28164 | -10.37325 | 41089 ft | 508 kts | 144° |
| 2026-05-03 21:15 | 57.22436 | -10.29677 | 41086 ft | 507 kts | 144° |
| 2026-05-03 21:16 | 57.16711 | -10.22063 | 41089 ft | 507 kts | 144° |
| 2026-05-03 21:16 | 57.11024 | -10.14526 | 41093 ft | 507 kts | 144° |
| 2026-05-03 21:17 | 57.06225 | -10.08188 | 41091 ft | 507 kts | 144° |
| 2026-05-03 21:17 | 57.02602 | -10.02848 | 41086 ft | 505 kts | 133° |
| 2026-05-03 21:17 | 57.00424 | -9.97795 | 41097 ft | 504 kts | 121° |
| 2026-05-03 21:18 | 56.97729 | -9.86057 | 41099 ft | 498 kts | 103° |
| 2026-05-03 21:18 | 56.96057 | -9.73712 | 41104 ft | 500 kts | 103° |
| 2026-05-03 21:19 | 56.94244 | -9.61399 | 41094 ft | 501 kts | 104° |
| 2026-05-03 21:19 | 56.91523 | -9.49654 | 41099 ft | 504 kts | 121° |
| 2026-05-03 21:20 | 56.87201 | -9.39535 | 41111 ft | 505 kts | 134° |
| 2026-05-03 21:20 | 56.82264 | -9.30368 | 41092 ft | 506 kts | 134° |
| 2026-05-03 21:21 | 56.77336 | -9.21285 | 41090 ft | 507 kts | 134° |
| 2026-05-03 21:21 | 56.72407 | -9.12103 | 41091 ft | 507 kts | 134° |
| 2026-05-03 21:22 | 56.67489 | -9.02902 | 41097 ft | 506 kts | 134° |
| 2026-05-03 21:22 | 56.62588 | -8.93754 | 41108 ft | 505 kts | 134° |
| 2026-05-03 21:23 | 56.57681 | -8.84647 | 41111 ft | 504 kts | 134° |
| 2026-05-03 21:23 | 56.52765 | -8.75557 | 41085 ft | 504 kts | 134° |
| 2026-05-03 21:24 | 56.47856 | -8.66510 | 41100 ft | 503 kts | 134° |
| 2026-05-03 21:24 | 56.42978 | -8.57554 | 41082 ft | 502 kts | 134° |
| 2026-05-03 21:25 | 56.38065 | -8.48574 | 41082 ft | 502 kts | 134° |
| 2026-05-03 21:25 | 56.33156 | -8.39636 | 41078 ft | 501 kts | 134° |
| 2026-05-03 21:26 | 56.28241 | -8.30725 | 41074 ft | 501 kts | 134° |
| 2026-05-03 21:26 | 56.23322 | -8.21839 | 41076 ft | 501 kts | 134° |
| 2026-05-03 21:27 | 56.18399 | -8.12980 | 41082 ft | 501 kts | 134° |
| 2026-05-03 21:27 | 56.13467 | -8.04139 | 41074 ft | 501 kts | 135° |
| 2026-05-03 21:28 | 56.08555 | -7.95366 | 41076 ft | 501 kts | 135° |
| 2026-05-03 21:28 | 56.03602 | -7.86556 | 41065 ft | 501 kts | 135° |
| 2026-05-03 21:29 | 55.98646 | -7.77774 | 41063 ft | 502 kts | 135° |
| 2026-05-03 21:29 | 55.93684 | -7.69013 | 41076 ft | 502 kts | 135° |
| 2026-05-03 21:30 | 55.89549 | -7.61739 | 41057 ft | 502 kts | 135° |
| 2026-05-03 21:30 | 55.84561 | -7.52995 | 41055 ft | 503 kts | 135° |
| 2026-05-03 21:31 | 55.79587 | -7.44309 | 41072 ft | 503 kts | 135° |
| 2026-05-03 21:31 | 55.74581 | -7.35600 | 41053 ft | 504 kts | 135° |
| 2026-05-03 21:32 | 55.69567 | -7.26908 | 41065 ft | 503 kts | 135° |
| 2026-05-03 21:32 | 55.64577 | -7.18292 | 41052 ft | 503 kts | 135° |
| 2026-05-03 21:33 | 55.59566 | -7.09673 | 41052 ft | 502 kts | 135° |
| 2026-05-03 21:33 | 55.54526 | -7.01035 | 41045 ft | 501 kts | 135° |
| 2026-05-03 21:34 | 55.49546 | -6.92534 | 41045 ft | 500 kts | 135° |
| 2026-05-03 21:34 | 55.44545 | -6.84026 | 41044 ft | 499 kts | 136° |
| 2026-05-03 21:35 | 55.39546 | -6.75555 | 41040 ft | 499 kts | 136° |
| 2026-05-03 21:35 | 55.34538 | -6.67099 | 41044 ft | 499 kts | 136° |
| 2026-05-03 21:36 | 55.29529 | -6.58672 | 41040 ft | 498 kts | 136° |
| 2026-05-03 21:36 | 55.24525 | -6.50286 | 41036 ft | 497 kts | 136° |
| 2026-05-03 21:37 | 55.19553 | -6.41983 | 41038 ft | 496 kts | 136° |
| 2026-05-03 21:37 | 55.14545 | -6.33650 | 41032 ft | 496 kts | 136° |
| 2026-05-03 21:38 | 55.09545 | -6.25360 | 41031 ft | 495 kts | 136° |
| 2026-05-03 21:38 | 55.04544 | -6.17099 | 41031 ft | 495 kts | 136° |
| 2026-05-03 21:39 | 54.99544 | -6.08871 | 41026 ft | 494 kts | 136° |
| 2026-05-03 21:39 | 54.94569 | -6.00711 | 41026 ft | 494 kts | 136° |
| 2026-05-03 21:40 | 54.89560 | -5.92526 | 41031 ft | 494 kts | 137° |
| 2026-05-03 21:40 | 54.84537 | -5.84347 | 41011 ft | 495 kts | 137° |
| 2026-05-03 21:41 | 54.79506 | -5.76185 | 41033 ft | 495 kts | 137° |
| 2026-05-03 21:41 | 54.74459 | -5.68025 | 41019 ft | 496 kts | 137° |
| 2026-05-03 21:42 | 54.69406 | -5.59886 | 41030 ft | 496 kts | 137° |
| 2026-05-03 21:42 | 54.64339 | -5.51752 | 41013 ft | 497 kts | 137° |
| 2026-05-03 21:43 | 54.59301 | -5.43693 | 41027 ft | 496 kts | 137° |
| 2026-05-03 21:43 | 54.54217 | -5.35589 | 41016 ft | 496 kts | 137° |
| 2026-05-03 21:44 | 54.49174 | -5.27582 | 41009 ft | 495 kts | 137° |
| 2026-05-03 21:44 | 54.44109 | -5.19565 | 41008 ft | 494 kts | 137° |
| 2026-05-03 21:45 | 54.39036 | -5.11565 | 41003 ft | 494 kts | 137° |
| 2026-05-03 21:45 | 54.33976 | -5.03613 | 41010 ft | 493 kts | 138° |
| 2026-05-03 21:46 | 54.28915 | -4.95687 | 41003 ft | 493 kts | 138° |
| 2026-05-03 21:46 | 54.23846 | -4.87775 | 40998 ft | 493 kts | 138° |
| 2026-05-03 21:47 | 54.18770 | -4.79882 | 41001 ft | 494 kts | 138° |
| 2026-05-03 21:47 | 54.13681 | -4.71992 | 40991 ft | 494 kts | 139° |
| 2026-05-03 21:48 | 54.08620 | -4.64176 | 40992 ft | 494 kts | 138° |
| 2026-05-03 21:48 | 54.03528 | -4.56337 | 40993 ft | 494 kts | 139° |
| 2026-05-03 21:49 | 53.98428 | -4.48512 | 41005 ft | 493 kts | 138° |
| 2026-05-03 21:49 | 53.93329 | -4.40712 | 40990 ft | 493 kts | 138° |
| 2026-05-03 21:50 | 53.88687 | -4.32175 | 40993 ft | 493 kts | 127° |
| 2026-05-03 21:50 | 53.84846 | -4.22544 | 40985 ft | 495 kts | 124° |
| 2026-05-03 21:51 | 53.80937 | -4.12882 | 40991 ft | 498 kts | 125° |
| 2026-05-03 21:51 | 53.76974 | -4.03318 | 40992 ft | 501 kts | 126° |
| 2026-05-03 21:52 | 53.72955 | -3.93640 | 40984 ft | 506 kts | 126° |
| 2026-05-03 21:52 | 53.68899 | -3.83883 | 40986 ft | 509 kts | 126° |
| 2026-05-03 21:53 | 53.64837 | -3.74135 | 40962 ft | 504 kts | 126° |
| 2026-05-03 21:53 | 53.60825 | -3.64553 | 40971 ft | 499 kts | 126° |
| 2026-05-03 21:54 | 53.56822 | -3.55018 | 40984 ft | 498 kts | 126° |
| 2026-05-03 21:54 | 53.52817 | -3.45502 | 40982 ft | 498 kts | 126° |
| 2026-05-03 21:55 | 53.48809 | -3.36013 | 40975 ft | 498 kts | 126° |
| 2026-05-03 21:55 | 53.44788 | -3.26528 | 40976 ft | 499 kts | 126° |
| 2026-05-03 21:56 | 53.42810 | -3.21873 | 40952 ft | 488 kts | 126° |
| 2026-05-03 21:56 | 53.40868 | -3.17309 | 40952 ft | 474 kts | 126° |
| 2026-05-03 21:56 | 53.37021 | -3.08412 | 40966 ft | 470 kts | 127° |
| 2026-05-03 21:57 | 53.33089 | -2.99645 | 40996 ft | 471 kts | 128° |
| 2026-05-03 21:57 | 53.29162 | -2.90897 | 40978 ft | 464 kts | 128° |
| 2026-05-03 21:58 | 53.27258 | -2.86644 | 40972 ft | 450 kts | 128° |
| 2026-05-03 21:58 | 53.25402 | -2.82505 | 40982 ft | 443 kts | 128° |
| 2026-05-03 21:58 | 53.21706 | -2.74279 | 40973 ft | 443 kts | 128° |
| 2026-05-03 21:59 | 53.18006 | -2.66056 | 40981 ft | 443 kts | 128° |
| 2026-05-03 21:59 | 53.14264 | -2.57877 | 40979 ft | 444 kts | 128° |
| 2026-05-03 22:00 | 53.10705 | -2.49456 | 40963 ft | 445 kts | 125° |
| 2026-05-03 22:00 | 53.09006 | -2.45206 | 40708 ft | 447 kts | 124° |
| 2026-05-03 22:00 | 53.07279 | -2.40898 | 40279 ft | 447 kts | 125° |
| 2026-05-03 22:01 | 53.05537 | -2.36605 | 39759 ft | 446 kts | 125° |
| 2026-05-03 22:01 | 53.03782 | -2.32349 | 39221 ft | 445 kts | 128° |
| 2026-05-03 22:01 | 53.01664 | -2.28642 | 38669 ft | 441 kts | 146° |
| 2026-05-03 22:01 | 52.99094 | -2.25902 | 38053 ft | 437 kts | 150° |
| 2026-05-03 22:02 | 52.96526 | -2.23327 | 37367 ft | 438 kts | 150° |
| 2026-05-03 22:02 | 52.93911 | -2.20705 | 36684 ft | 439 kts | 150° |
| 2026-05-03 22:02 | 52.91300 | -2.18059 | 36009 ft | 439 kts | 150° |
| 2026-05-03 22:02 | 52.88698 | -2.15389 | 35367 ft | 440 kts | 150° |
| 2026-05-03 22:03 | 52.86101 | -2.12703 | 34733 ft | 439 kts | 150° |
| 2026-05-03 22:03 | 52.83515 | -2.10015 | 34113 ft | 438 kts | 149° |
| 2026-05-03 22:03 | 52.80969 | -2.07365 | 33424 ft | 437 kts | 150° |
| 2026-05-03 22:03 | 52.78396 | -2.04686 | 32690 ft | 436 kts | 150° |
| 2026-05-03 22:04 | 52.75834 | -2.02024 | 32011 ft | 434 kts | 150° |
| 2026-05-03 22:04 | 52.73291 | -1.99384 | 31354 ft | 430 kts | 150° |
| 2026-05-03 22:04 | 52.70765 | -1.96767 | 30733 ft | 427 kts | 150° |
| 2026-05-03 22:04 | 52.68263 | -1.94180 | 30133 ft | 423 kts | 150° |
| 2026-05-03 22:05 | 52.65780 | -1.91615 | 29433 ft | 420 kts | 150° |
| 2026-05-03 22:05 | 52.63291 | -1.89051 | 28716 ft | 424 kts | 150° |
| 2026-05-03 22:05 | 52.60768 | -1.86457 | 28073 ft | 431 kts | 150° |
| 2026-05-03 22:05 | 52.58211 | -1.83831 | 27446 ft | 435 kts | 150° |
| 2026-05-03 22:06 | 52.55654 | -1.81204 | 26806 ft | 429 kts | 150° |
| 2026-05-03 22:06 | 52.53141 | -1.78625 | 26178 ft | 423 kts | 150° |
| 2026-05-03 22:06 | 52.50659 | -1.76081 | 25596 ft | 417 kts | 150° |
| 2026-05-03 22:06 | 52.48243 | -1.73606 | 25013 ft | 400 kts | 150° |
| 2026-05-03 22:07 | 52.45937 | -1.71246 | 24475 ft | 382 kts | 150° |
| 2026-05-03 22:07 | 52.43709 | -1.68973 | 24005 ft | 375 kts | 150° |
| 2026-05-03 22:07 | 52.41496 | -1.66722 | 23526 ft | 373 kts | 150° |
| 2026-05-03 22:07 | 52.39295 | -1.64484 | 22962 ft | 371 kts | 150° |
| 2026-05-03 22:08 | 52.37133 | -1.62288 | 22438 ft | 369 kts | 150° |
| 2026-05-03 22:08 | 52.34956 | -1.60079 | 21880 ft | 367 kts | 150° |
| 2026-05-03 22:08 | 52.32795 | -1.57888 | 21412 ft | 364 kts | 150° |
| 2026-05-03 22:08 | 52.30669 | -1.55733 | 21105 ft | 356 kts | 150° |
| 2026-05-03 22:09 | 52.28582 | -1.53620 | 20814 ft | 349 kts | 150° |
| 2026-05-03 22:09 | 52.26521 | -1.51536 | 20529 ft | 347 kts | 150° |
| 2026-05-03 22:09 | 52.24457 | -1.49454 | 20257 ft | 349 kts | 150° |
| 2026-05-03 22:10 | 52.20364 | -1.45126 | 19953 ft | 353 kts | 144° |
| 2026-05-03 22:10 | 52.18474 | -1.42550 | 19948 ft | 354 kts | 141° |
| 2026-05-03 22:10 | 52.16631 | -1.39876 | 19945 ft | 355 kts | 141° |
| 2026-05-03 22:10 | 52.14779 | -1.37182 | 19727 ft | 358 kts | 141° |
| 2026-05-03 22:11 | 52.12929 | -1.34524 | 19276 ft | 359 kts | 141° |
| 2026-05-03 22:11 | 52.11053 | -1.31865 | 18861 ft | 356 kts | 142° |
| 2026-05-03 22:11 | 52.09184 | -1.29242 | 18462 ft | 352 kts | 142° |
| 2026-05-03 22:11 | 52.07330 | -1.26654 | 18027 ft | 349 kts | 142° |
| 2026-05-03 22:12 | 52.05489 | -1.24096 | 17565 ft | 346 kts | 142° |
| 2026-05-03 22:12 | 52.03665 | -1.21566 | 17132 ft | 342 kts | 142° |
| 2026-05-03 22:12 | 52.01862 | -1.19070 | 16742 ft | 338 kts | 142° |
| 2026-05-03 22:12 | 52.00081 | -1.16605 | 16357 ft | 334 kts | 142° |
| 2026-05-03 22:13 | 51.98319 | -1.14169 | 15966 ft | 331 kts | 142° |
| 2026-05-03 22:13 | 51.96572 | -1.11759 | 15585 ft | 328 kts | 142° |
| 2026-05-03 22:13 | 51.94840 | -1.09371 | 15214 ft | 326 kts | 142° |
| 2026-05-03 22:13 | 51.93119 | -1.07000 | 14948 ft | 323 kts | 142° |
| 2026-05-03 22:14 | 51.91414 | -1.04651 | 14941 ft | 318 kts | 142° |
| 2026-05-03 22:14 | 51.89820 | -1.02453 | 14876 ft | 292 kts | 142° |
| 2026-05-03 22:14 | 51.88312 | -1.00379 | 14555 ft | 278 kts | 142° |
| 2026-05-03 22:14 | 51.86869 | -0.98397 | 14204 ft | 267 kts | 142° |
| 2026-05-03 22:15 | 51.85557 | -0.96265 | 13916 ft | 270 kts | 132° |
| 2026-05-03 22:15 | 51.84461 | -0.93826 | 13601 ft | 270 kts | 124° |
| 2026-05-03 22:15 | 51.83577 | -0.91108 | 13265 ft | 275 kts | 119° |
| 2026-05-03 22:15 | 51.82750 | -0.88296 | 12916 ft | 276 kts | 118° |
| 2026-05-03 22:16 | 51.81930 | -0.85489 | 12589 ft | 275 kts | 118° |
| 2026-05-03 22:16 | 51.81116 | -0.82739 | 12253 ft | 274 kts | 118° |
| 2026-05-03 22:16 | 51.80287 | -0.79969 | 11924 ft | 273 kts | 119° |
| 2026-05-03 22:16 | 51.79462 | -0.77239 | 11575 ft | 265 kts | 119° |
| 2026-05-03 22:17 | 51.78663 | -0.74610 | 11253 ft | 256 kts | 119° |
| 2026-05-03 22:17 | 51.77882 | -0.72054 | 10931 ft | 252 kts | 119° |
| 2026-05-03 22:17 | 51.77093 | -0.69487 | 10656 ft | 258 kts | 119° |
| 2026-05-03 22:17 | 51.76284 | -0.66861 | 10373 ft | 262 kts | 119° |
| 2026-05-03 22:18 | 51.75749 | -0.65120 | 10188 ft | 261 kts | 119° |
| 2026-05-03 22:18 | 51.74942 | -0.62499 | 9885 ft | 260 kts | 119° |
| 2026-05-03 22:18 | 51.74135 | -0.59889 | 9551 ft | 260 kts | 118° |
| 2026-05-03 22:18 | 51.73328 | -0.57279 | 9212 ft | 260 kts | 118° |
| 2026-05-03 22:19 | 51.72510 | -0.54689 | 8996 ft | 255 kts | 120° |
| 2026-05-03 22:19 | 51.71686 | -0.52225 | 8931 ft | 246 kts | 121° |
| 2026-05-03 22:19 | 51.70865 | -0.49791 | 8716 ft | 248 kts | 121° |
| 2026-05-03 22:19 | 51.70031 | -0.47334 | 8471 ft | 251 kts | 121° |
| 2026-05-03 22:20 | 51.69191 | -0.44877 | 8210 ft | 249 kts | 121° |
| 2026-05-03 22:20 | 51.68362 | -0.42459 | 8037 ft | 243 kts | 121° |
| 2026-05-03 22:20 | 51.67552 | -0.40099 | 7974 ft | 239 kts | 121° |
| 2026-05-03 22:20 | 51.66738 | -0.37733 | 7942 ft | 243 kts | 121° |
| 2026-05-03 22:21 | 51.65909 | -0.35331 | 7956 ft | 247 kts | 121° |
| 2026-05-03 22:21 | 51.65074 | -0.32915 | 7939 ft | 247 kts | 121° |
| 2026-05-03 22:21 | 51.64253 | -0.30538 | 7933 ft | 246 kts | 121° |
| 2026-05-03 22:21 | 51.63422 | -0.28136 | 7937 ft | 245 kts | 121° |
| 2026-05-03 22:22 | 51.62595 | -0.25745 | 7931 ft | 245 kts | 121° |
| 2026-05-03 22:22 | 51.61758 | -0.23329 | 7770 ft | 250 kts | 121° |
| 2026-05-03 22:22 | 51.60904 | -0.20871 | 7454 ft | 253 kts | 121° |
| 2026-05-03 22:22 | 51.60042 | -0.18401 | 7089 ft | 254 kts | 121° |
| 2026-05-03 22:23 | 51.59177 | -0.15934 | 6722 ft | 250 kts | 121° |
| 2026-05-03 22:23 | 51.58333 | -0.13538 | 6349 ft | 243 kts | 121° |
| 2026-05-03 22:23 | 51.57509 | -0.11201 | 5918 ft | 238 kts | 121° |
| 2026-05-03 22:23 | 51.56694 | -0.08904 | 5458 ft | 235 kts | 121° |
| 2026-05-03 22:24 | 51.55873 | -0.06606 | 5042 ft | 239 kts | 121° |
| 2026-05-03 22:24 | 51.55030 | -0.04272 | 4639 ft | 244 kts | 121° |
| 2026-05-03 22:24 | 51.54154 | -0.01971 | 4206 ft | 242 kts | 129° |
| 2026-05-03 22:24 | 51.52841 | -0.00388 | 3999 ft | 232 kts | 162° |
| 2026-05-03 22:25 | 51.51317 | -0.00096 | 4010 ft | 211 kts | 181° |
| 2026-05-03 22:25 | 51.49917 | -0.00130 | 3984 ft | 196 kts | 183° |
| 2026-05-03 22:25 | 51.48659 | -0.00730 | 3986 ft | 189 kts | 218° |
| 2026-05-03 22:25 | 51.47969 | -0.02473 | 3984 ft | 190 kts | 259° |
| 2026-05-03 22:26 | 51.47918 | -0.04592 | 4004 ft | 193 kts | 269° |
| 2026-05-03 22:26 | 51.47893 | -0.06764 | 4024 ft | 194 kts | 268° |
| 2026-05-03 22:26 | 51.47875 | -0.08939 | 3998 ft | 195 kts | 269° |
| 2026-05-03 22:26 | 51.47865 | -0.11103 | 3988 ft | 193 kts | 269° |
| 2026-05-03 22:27 | 51.47858 | -0.13273 | 3761 ft | 195 kts | 269° |
| 2026-05-03 22:27 | 51.47852 | -0.15425 | 3512 ft | 190 kts | 269° |
| 2026-05-03 22:27 | 51.47846 | -0.17527 | 3260 ft | 188 kts | 269° |
| 2026-05-03 22:27 | 51.47840 | -0.19628 | 3007 ft | 189 kts | 270° |
| 2026-05-03 22:28 | 51.47834 | -0.21729 | 2765 ft | 188 kts | 270° |
| 2026-05-03 22:28 | 51.47827 | -0.23810 | 2517 ft | 186 kts | 270° |
| 2026-05-03 22:28 | 51.47821 | -0.25844 | 2265 ft | 183 kts | 270° |
| 2026-05-03 22:28 | 51.47815 | -0.27849 | 2040 ft | 174 kts | 270° |
| 2026-05-03 22:29 | 51.47809 | -0.29722 | 1782 ft | 163 kts | 270° |
| 2026-05-03 22:29 | 51.47803 | -0.31521 | 1573 ft | 159 kts | 269° |
| 2026-05-03 22:29 | 51.47798 | -0.33295 | 1363 ft | 158 kts | 269° |
| 2026-05-03 22:29 | 51.47792 | -0.34975 | 1135 ft | 143 kts | 269° |
| 2026-05-03 22:30 | 51.47788 | -0.36495 | 973 ft | 130 kts | 269° |
| 2026-05-03 22:30 | 51.47783 | -0.37943 | 793 ft | 131 kts | 269° |
| 2026-05-03 22:30 | 51.47778 | -0.39406 | 620 ft | 131 kts | 269° |
| 2026-05-03 22:30 | 51.47775 | -0.40867 | 428 ft | 130 kts | 269° |
| 2026-05-03 22:31 | 51.47771 | -0.42294 | 257 ft | 128 kts | 269° |
| 2026-05-03 22:31 | 51.47770 | -0.43715 | 126 ft | 127 kts | 269° |
| 2026-05-03 22:31 | 51.47761 | -0.45058 | 97 ft | 107 kts | 270° |
| 2026-05-03 22:31 | 51.47758 | -0.46007 | 92 ft | 63 kts | 270° |
| 2026-05-03 22:32 | 51.47749 | -0.46484 | 97 ft | 33 kts | 259° |
| 2026-05-03 22:32 | 51.47690 | -0.46753 | 100 ft | 15 kts | 243° |
| 2026-05-03 22:32 | 51.47645 | -0.46858 | 98 ft | 11 kts | 215° |
| 2026-05-03 22:32 | 51.47591 | -0.46903 | 95 ft | 2 kts | 203° |
| 2026-05-03 22:33 | 51.47583 | -0.46909 | 97 ft | 2 kts | 211° |
| 2026-05-03 22:33 | 51.47577 | -0.47011 | 94 ft | 12 kts | 277° |
| 2026-05-03 22:33 | 51.47582 | -0.47149 | 95 ft | 13 kts | 271° |
| 2026-05-03 22:33 | 51.47582 | -0.47295 | 94 ft | 13 kts | 270° |
| 2026-05-03 22:34 | 51.47583 | -0.47449 | 94 ft | 18 kts | 270° |
| 2026-05-03 22:34 | 51.47582 | -0.47660 | 93 ft | 19 kts | 269° |
| 2026-05-03 22:34 | 51.47580 | -0.47872 | 94 ft | 19 kts | 269° |
| 2026-05-03 22:34 | 51.47579 | -0.48083 | 95 ft | 18 kts | 269° |
| 2026-05-03 22:35 | 51.47579 | -0.48270 | 97 ft | 14 kts | 270° |
| 2026-05-03 22:35 | 51.47534 | -0.48364 | 93 ft | 14 kts | 185° |
| 2026-05-03 22:35 | 51.47440 | -0.48360 | 89 ft | 14 kts | 179° |
| 2026-05-03 22:35 | 51.47345 | -0.48360 | 89 ft | 14 kts | 180° |
| 2026-05-03 22:36 | 51.47250 | -0.48358 | 92 ft | 14 kts | 178° |
| 2026-05-03 22:36 | 51.47155 | -0.48355 | 93 ft | 14 kts | 180° |
| 2026-05-03 22:36 | 51.47061 | -0.48355 | 92 ft | 14 kts | 179° |
| 2026-05-03 22:36 | 51.46966 | -0.48355 | 92 ft | 14 kts | 180° |
| 2026-05-03 22:37 | 51.46925 | -0.48341 | 92 ft | 5 kts | 137° |
| 2026-05-03 22:37 | 51.46916 | -0.48282 | 92 ft | 5 kts | 94° |
| 2026-05-03 22:37 | 51.46916 | -0.48247 | 90 ft | 3 kts | 91° |
| 2026-05-03 22:37 | 51.46916 | -0.48239 | 90 ft | 0 kts | 91° |